Time;durP1;ratioP1;P1;durP2;ratioP2;P2;SDS_P1;SDS_P2;PMS_P1;PMS_P2;Temp;Humidity;BMP_temperature;BMP_pressure;BME280_temperature;BME280_humidity;BME280_pressure;Samples;Min_cycle;Max_cycle;Signal;HPM_P1;HPM_P2
2021/12/22 13:45:53;;;;;;;0.00;0.00;;;20.80;69.20;;;;;;5068967;28;20114;-85
2021/12/22 13:48:27;;;;;;;0.10;0.10;;;19.30;49.30;;;;;;5091636;28;20356;-78
2021/12/22 13:50:57;;;;;;;0.10;0.10;;;16.20;52.30;;;;;;5097231;28;20085;-78
2021/12/22 13:53:32;;;;;;;0.10;0.10;;;12.80;57.00;;;;;;5105224;28;20017;-77
2021/12/22 13:56:00;;;;;;;0.10;0.10;;;10.40;62.50;;;;;;5100412;28;20025;-77
2021/12/22 13:59:02;;;;;;;0.10;0.10;;;8.10;68.20;;;;;;5102326;28;20017;-78
2021/12/22 14:01:33;;;;;;;0.10;0.10;;;6.30;74.30;;;;;;5078961;28;20030;-77
2021/12/22 14:04:14;;;;;;;0.10;0.10;;;4.90;78.40;;;;;;5080551;28;20033;-77
2021/12/22 14:06:44;;;;;;;0.20;0.20;;;3.90;83.70;;;;;;5079042;28;20032;-79
2021/12/22 14:09:40;;;;;;;0.10;0.10;;;3.10;87.40;;;;;;5103410;28;20061;-77
2021/12/22 14:12:13;;;;;;;0.20;0.20;;;2.60;89.50;;;;;;5096905;28;20282;-76
2021/12/22 14:14:48;;;;;;;0.20;0.20;;;2.20;90.80;;;;;;5098054;28;20286;-77
2021/12/22 14:17:22;;;;;;;0.20;0.20;;;1.80;91.60;;;;;;5081664;28;20040;-76
2021/12/22 14:19:53;;;;;;;0.10;0.10;;;1.50;92.30;;;;;;5100958;28;20290;-77
2021/12/22 14:22:28;;;;;;;0.10;0.10;;;1.30;93.00;;;;;;5083220;28;20275;-77
2021/12/22 14:25:06;;;;;;;0.10;0.10;;;1.10;93.40;;;;;;5141257;22;20307;-76
2021/12/22 14:30:26;;;;;;;0.10;0.10;;;1.00;94.10;;;;;;5060859;23;20422;-76
2021/12/22 14:33:07;;;;;;;0.10;0.10;;;0.90;94.50;;;;;;5053985;28;20299;-76
2021/12/22 14:35:57;;;;;;;0.10;0.10;;;0.80;95.00;;;;;;5054485;28;20304;-76
2021/12/22 14:38:27;;;;;;;0.10;0.10;;;0.70;95.30;;;;;;5054713;28;20279;-76
2021/12/22 14:41:09;;;;;;;0.10;0.10;;;0.60;96.10;;;;;;5055040;28;20284;-76
2021/12/22 14:43:40;;;;;;;0.40;0.40;;;0.50;96.50;;;;;;5053322;28;21494;-77
2021/12/22 14:46:13;;;;;;;0.20;0.20;;;0.40;96.80;;;;;;5167005;22;20109;-76
2021/12/22 14:48:50;;;;;;;0.20;0.20;;;0.40;97.00;;;;;;5043995;28;20279;-76
2021/12/22 14:51:28;;;;;;;0.10;0.10;;;0.50;97.40;;;;;;5047066;28;20057;-76
2021/12/22 14:54:06;;;;;;;0.10;0.10;;;0.40;97.70;;;;;;5064165;28;20287;-75
2021/12/22 14:56:42;;;;;;;0.10;0.10;;;0.20;97.90;;;;;;5037919;28;20304;-76
2021/12/22 14:59:08;;;;;;;0.10;0.10;;;0.20;98.20;;;;;;5048045;28;20284;-76
2021/12/22 15:01:35;;;;;;;0.20;0.20;;;0.20;98.70;;;;;;5033786;28;20356;-76
2021/12/22 15:04:04;;;;;;;0.50;0.50;;;0.20;98.80;;;;;;5034248;28;20304;-76
2021/12/22 15:06:33;;;;;;;0.70;0.70;;;0.20;98.80;;;;;;5033820;28;20279;-76
2021/12/22 15:09:09;;;;;;;0.10;0.10;;;0.20;99.10;;;;;;5034779;28;20296;-76
2021/12/22 15:11:40;;;;;;;0.10;0.10;;;0.20;98.90;;;;;;5048022;28;20297;-76
2021/12/22 15:14:06;;;;;;;0.10;0.10;;;0.00;99.30;;;;;;5034786;28;20285;-76
2021/12/22 15:22:13;;;;;;;0.40;0.40;;;0.00;99.80;;;;;;5817237;22;20284;-75
2021/12/22 16:16:22;;;;;;;;;;;-1.00;99.90;;;;;;5041693;28;20289;-77
2021/12/22 16:18:51;;;;;;;0.20;0.20;;;-1.10;99.90;;;;;;5058149;28;19955;-78
2021/12/22 16:21:17;;;;;;;0.20;0.20;;;-1.20;99.90;;;;;;5059902;28;20889;-77
2021/12/22 16:23:43;;;;;;;1.53;1.50;;;-1.20;99.90;;;;;;5047840;28;20352;-78
2021/12/22 16:28:46;;;;;;;0.20;0.20;;;-1.30;99.90;;;;;;5025319;28;20069;-78
2021/12/22 16:31:14;;;;;;;2.67;1.07;;;-1.30;99.90;;;;;;5029810;28;20313;-77
2021/12/22 16:33:51;;;;;;;0.20;0.20;;;-1.20;99.90;;;;;;5053466;22;20052;-78
2021/12/22 16:36:18;;;;;;;0.20;0.20;;;-1.10;99.90;;;;;;5031737;28;20265;-77
2021/12/22 16:38:49;;;;;;;0.10;0.10;;;-1.20;99.90;;;;;;5045720;28;20295;-76
2021/12/22 16:41:20;;;;;;;4.17;3.87;;;-1.20;99.90;;;;;;5030541;28;20360;-77
2021/12/22 16:43:59;;;;;;;0.10;0.10;;;-1.10;99.90;;;;;;5044541;28;20293;-77
2021/12/22 16:46:30;;;;;;;0.30;0.30;;;-1.20;99.90;;;;;;5046089;28;20284;-76
2021/12/22 16:49:00;;;;;;;0.20;0.20;;;-1.20;99.90;;;;;;5045962;28;20291;-76
2021/12/22 16:51:31;;;;;;;0.10;0.10;;;-1.20;99.90;;;;;;5030203;28;20278;-75
2021/12/22 16:56:33;;;;;;;0.30;0.30;;;-1.30;99.90;;;;;;5009673;28;20299;-76
2021/12/22 16:59:05;;;;;;;0.20;0.20;;;-1.30;99.90;;;;;;5010724;28;20332;-76
2021/12/22 17:01:38;;;;;;;0.20;0.20;;;-1.30;99.90;;;;;;5004024;28;20278;-76
2021/12/22 17:04:14;;;;;;;0.10;0.10;;;-1.30;99.90;;;;;;5008423;28;20053;-77
2021/12/22 17:06:47;;;;;;;0.10;0.10;;;-1.30;99.90;;;;;;5089625;22;21305;-77
2021/12/22 17:09:16;;;;;;;0.20;0.20;;;-1.40;99.90;;;;;;5256606;23;20333;-76
2021/12/22 17:11:41;;;;;;;0.20;0.20;;;-1.40;99.90;;;;;;5029181;28;20012;-77
2021/12/22 17:16:47;;;;;;;0.22;0.22;;;-1.30;99.90;;;;;;5015974;28;20061;-76
2021/12/22 17:19:13;;;;;;;0.20;0.20;;;-1.40;99.90;;;;;;5017301;28;20066;-76
2021/12/22 17:21:46;;;;;;;0.20;0.20;;;-1.30;99.90;;;;;;5006972;28;20304;-76
2021/12/22 17:24:12;;;;;;;0.20;0.20;;;-1.20;99.90;;;;;;5014216;28;20038;-77
2021/12/22 17:26:40;;;;;;;0.10;0.10;;;-1.20;99.90;;;;;;5073662;22;20935;-76
2021/12/22 17:29:06;;;;;;;0.40;0.40;;;-1.20;99.90;;;;;;5048604;28;20685;-77
2021/12/22 17:31:34;;;;;;;0.10;0.10;;;-1.20;99.90;;;;;;5050648;28;20351;-77
2021/12/22 17:34:00;;;;;;;0.10;0.10;;;-1.20;99.90;;;;;;5049625;28;20032;-77
2021/12/22 17:36:28;;;;;;;0.17;0.17;;;-1.20;99.90;;;;;;5053970;23;20368;-77
2021/12/22 17:38:54;;;;;;;0.20;0.20;;;-1.20;99.90;;;;;;5051386;22;20041;-78
2021/12/22 17:41:22;;;;;;;0.20;0.20;;;-1.30;99.90;;;;;;5029627;28;20279;-77
2021/12/22 17:43:55;;;;;;;0.20;0.20;;;-1.40;99.90;;;;;;5026804;28;20272;-77
2021/12/22 17:46:30;;;;;;;0.20;0.20;;;-1.50;99.90;;;;;;5033510;28;20419;-77
2021/12/22 17:49:02;;;;;;;0.20;0.20;;;-1.50;99.90;;;;;;5064723;23;20050;-77
2021/12/22 17:51:35;;;;;;;0.20;0.20;;;-1.60;99.90;;;;;;5011889;28;20282;-77
2021/12/22 17:54:03;;;;;;;;;;;-1.50;99.90;;;;;;5026914;28;20262;-76
2021/12/22 17:56:28;;;;;;;0.20;0.20;;;-1.60;99.90;;;;;;5009013;28;19913;-77
2021/12/22 17:59:05;;;;;;;14.03;13.03;;;-1.60;99.90;;;;;;5009906;28;20662;-76
2021/12/22 18:06:10;;;;;;;0.20;0.20;;;-1.60;99.90;;;;;;5047057;28;20271;-78
2021/12/22 18:09:35;;;;;;;;;;;;;;;;;;;;;
2021/12/22 18:12:52;;;;;;;0.20;0.20;;;-1.70;99.90;;;;;;5018611;28;20316;-76
2021/12/22 19:46:54;;;;;;;;;;;-1.40;99.90;;;;;;5048019;28;20322;-75
2021/12/22 19:49:25;;;;;;;24.47;9.00;;;-1.40;99.90;;;;;;5050061;28;19924;-76
2021/12/22 19:51:52;;;;;;;27.77;11.10;;;-1.50;99.90;;;;;;5049029;28;20378;-78
2021/12/22 20:28:53;;;;;;;22.50;9.95;;;-1.60;99.90;;;;;;5689511;22;20630;-78
2021/12/22 20:31:17;;;;;;;18.90;9.10;;;-1.60;99.90;;;;;;4999835;28;20026;-78
2021/12/22 20:34:00;;;;;;;23.58;9.77;;;-1.70;99.90;;;;;;5194098;22;20058;-78
2021/12/22 20:37:40;;;;;;;23.07;10.57;;;-1.60;99.90;;;;;;5047192;28;20021;-78
2021/12/22 20:40:28;;;;;;;21.07;8.90;;;-1.50;99.90;;;;;;4931301;28;20377;-77
2021/12/22 20:42:57;;;;;;;27.47;10.00;;;-1.50;99.90;;;;;;5459024;22;20275;-76
2021/12/22 20:45:46;;;;;;;19.60;9.07;;;-1.50;99.90;;;;;;5044627;28;20296;-78
2021/12/22 20:48:43;;;;;;;22.50;9.93;;;-1.50;99.90;;;;;;5655232;22;20305;-77
2021/12/22 20:58:27;;;;;;;26.17;10.60;;;-1.30;99.90;;;;;;5131870;22;20790;-78
2021/12/22 21:15:39;;;;;;;31.38;10.88;;;-1.20;99.90;;;;;;4990191;28;20264;-77
2021/12/22 21:31:57;;;;;;;;;;;;;;;;;;;;;
2021/12/22 21:34:42;;;;;;;23.87;10.23;;;-1.60;99.90;;;;;;5112572;22;20328;-78
2021/12/22 21:37:16;;;;;;;27.27;10.60;;;-1.70;99.90;;;;;;5030233;28;20282;-79
2021/12/22 21:39:50;;;;;;;22.50;10.27;;;-1.60;99.90;;;;;;5024415;28;20299;-78
2021/12/22 21:42:22;;;;;;;29.27;11.43;;;-1.50;99.90;;;;;;5021161;28;20285;-78
2021/12/22 21:44:48;;;;;;;15.15;7.38;;;-1.50;99.90;;;;;;5025573;28;20300;-78
2021/12/22 21:47:58;;;;;;;22.47;9.70;;;-1.50;99.90;;;;;;5038204;28;20017;-79
2021/12/22 21:50:30;;;;;;;26.10;10.10;;;-1.50;99.90;;;;;;5020420;28;20281;-79
2021/12/22 21:53:23;;;;;;;19.80;9.93;;;-1.60;99.90;;;;;;5020322;28;20041;-79
2021/12/22 21:55:48;;;;;;;27.15;11.15;;;-1.50;99.90;;;;;;5039240;28;20281;-78
2021/12/22 21:58:16;;;;;;;21.47;10.43;;;-1.40;99.90;;;;;;5025596;28;20076;-79
2021/12/22 22:00:51;;;;;;;26.30;10.70;;;-1.40;99.90;;;;;;5031656;28;20076;-78
2021/12/22 22:03:17;;;;;;;20.40;10.10;;;-1.30;99.90;;;;;;5025121;28;20280;-79
2021/12/22 22:05:45;;;;;;;25.33;9.57;;;-1.30;99.90;;;;;;5019378;28;20300;-79
2021/12/22 22:08:12;;;;;;;23.90;10.03;;;-1.30;99.90;;;;;;5027929;28;20284;-79
2021/12/22 22:10:41;;;;;;;27.80;10.50;;;-1.40;99.90;;;;;;5031419;28;20292;-78
2021/12/22 22:13:09;;;;;;;17.30;8.40;;;-1.30;99.90;;;;;;5025143;28;20270;-78
2021/12/22 22:15:38;;;;;;;22.00;10.13;;;-1.30;99.90;;;;;;5027131;28;20299;-78
2021/12/22 22:18:22;;;;;;;18.87;9.53;;;-1.30;99.90;;;;;;5027003;28;20276;-79
2021/12/22 22:20:55;;;;;;;24.37;10.67;;;-1.40;99.90;;;;;;5046300;28;20315;-79
2021/12/22 22:23:26;;;;;;;24.47;10.03;;;-1.30;99.90;;;;;;5029684;28;20281;-78
2021/12/22 22:25:57;;;;;;;27.53;11.27;;;-1.40;99.90;;;;;;5045206;28;20307;-79
2021/12/22 22:28:23;;;;;;;23.77;10.47;;;-1.40;99.90;;;;;;5028030;28;20282;-78
2021/12/22 22:30:48;;;;;;;27.70;10.93;;;-1.40;99.90;;;;;;5042774;28;20319;-78
2021/12/22 22:38:21;;;;;;;22.33;9.70;;;-1.50;99.90;;;;;;5029374;28;19917;-78
2021/12/22 22:40:47;;;;;;;26.27;10.07;;;-1.50;99.90;;;;;;5041686;28;20337;-79
2021/12/22 22:43:13;;;;;;;27.07;11.03;;;-1.60;99.90;;;;;;5030567;28;20205;-79
2021/12/22 22:45:45;;;;;;;23.30;10.17;;;-1.60;99.90;;;;;;5026871;28;20034;-79
2021/12/22 22:48:11;;;;;;;22.92;10.93;;;-1.60;99.90;;;;;;5031366;28;20018;-79
2021/12/22 22:50:42;;;;;;;23.40;9.83;;;-1.70;99.90;;;;;;5025475;28;20055;-79
2021/12/22 22:53:13;;;;;;;21.43;9.67;;;-1.70;99.90;;;;;;5046095;28;20320;-78
2021/12/22 22:55:47;;;;;;;23.70;10.10;;;-1.80;99.90;;;;;;5044845;28;20293;-79
2021/12/22 22:58:21;;;;;;;28.13;11.13;;;-1.80;99.90;;;;;;5046428;28;20289;-79
2021/12/22 23:00:47;;;;;;;22.67;9.87;;;-1.70;99.90;;;;;;5204438;22;20359;-78
2021/12/22 23:03:16;;;;;;;20.87;9.70;;;-1.70;99.90;;;;;;5006020;28;20268;-78
2021/12/22 23:05:45;;;;;;;24.60;10.37;;;-1.60;99.90;;;;;;5031610;28;20309;-78
2021/12/22 23:08:11;;;;;;;20.30;9.27;;;-1.60;99.90;;;;;;5021295;28;20324;-79
2021/12/22 23:10:39;;;;;;;25.30;10.27;;;-1.60;99.90;;;;;;5016175;28;21382;-78
2021/12/22 23:13:08;;;;;;;26.70;10.73;;;-1.50;99.90;;;;;;5019510;28;20285;-78
2021/12/22 23:15:36;;;;;;;22.30;10.03;;;-1.70;99.90;;;;;;5019340;28;21581;-78
2021/12/22 23:18:11;;;;;;;24.37;10.30;;;-1.50;99.90;;;;;;5020292;28;20303;-78
2021/12/22 23:20:39;;;;;;;22.90;9.57;;;-1.50;99.90;;;;;;5031910;28;20312;-78
2021/12/22 23:23:06;;;;;;;24.33;10.03;;;-1.50;99.90;;;;;;5030431;28;20578;-78
2021/12/22 23:25:33;;;;;;;25.63;11.07;;;-1.50;99.90;;;;;;5004353;28;20300;-78
2021/12/22 23:28:04;;;;;;;22.07;10.00;;;-1.40;99.90;;;;;;5019483;28;20285;-78
2021/12/22 23:30:33;;;;;;;23.30;10.70;;;-1.30;99.90;;;;;;5029659;28;20277;-78
2021/12/22 23:33:01;;;;;;;22.27;9.87;;;-1.40;99.90;;;;;;5030666;28;20296;-78
2021/12/22 23:35:27;;;;;;;21.10;9.70;;;-1.50;99.90;;;;;;5020264;28;20281;-78
2021/12/22 23:38:21;;;;;;;29.93;11.40;;;-1.50;99.90;;;;;;5016876;28;20304;-78
2021/12/22 23:40:59;;;;;;;28.30;11.13;;;-1.70;99.90;;;;;;5014924;28;20038;-78
2021/12/22 23:49:03;;;;;;;29.00;10.77;;;-1.70;99.90;;;;;;5016695;28;20056;-77
2021/12/22 23:51:36;;;;;;;23.27;10.90;;;-1.60;99.90;;;;;;5013875;28;20338;-77
2021/12/22 23:54:07;;;;;;;28.50;11.23;;;-1.70;99.90;;;;;;5014524;28;20294;-77
2021/12/22 23:56:43;;;;;;;23.07;10.13;;;-1.70;99.90;;;;;;5004010;28;20312;-77
2021/12/22 23:59:15;;;;;;;23.03;11.27;;;-1.80;99.90;;;;;;5012950;28;20287;-77
